sensor_id;sensor_type;location;lat;lon;timestamp;P1;durP1;ratioP1;P2;durP2;ratioP2
22737;SDS011;11536;50.860;4.286;2022-07-23T00:00:32;15.02;;;8.77;;
22737;SDS011;11536;50.860;4.286;2022-07-23T00:02:58;13.93;;;9.05;;
22737;SDS011;11536;50.860;4.286;2022-07-23T00:05:24;15.00;;;8.98;;
22737;SDS011;11536;50.860;4.286;2022-07-23T00:07:49;16.90;;;9.35;;
22737;SDS011;11536;50.860;4.286;2022-07-23T00:10:15;14.10;;;8.70;;
22737;SDS011;11536;50.860;4.286;2022-07-23T00:12:41;13.57;;;8.40;;
22737;SDS011;11536;50.860;4.286;2022-07-23T00:15:07;18.48;;;9.98;;
22737;SDS011;11536;50.860;4.286;2022-07-23T00:17:33;14.32;;;9.90;;
22737;SDS011;11536;50.860;4.286;2022-07-23T00:19:59;13.10;;;8.10;;
22737;SDS011;11536;50.860;4.286;2022-07-23T00:22:25;11.23;;;7.82;;
22737;SDS011;11536;50.860;4.286;2022-07-23T00:24:53;17.50;;;9.55;;
22737;SDS011;11536;50.860;4.286;2022-07-23T00:27:19;16.42;;;9.15;;
22737;SDS011;11536;50.860;4.286;2022-07-23T00:29:44;14.65;;;9.02;;
22737;SDS011;11536;50.860;4.286;2022-07-23T00:32:10;13.50;;;8.82;;
22737;SDS011;11536;50.860;4.286;2022-07-23T00:34:35;15.80;;;9.10;;
22737;SDS011;11536;50.860;4.286;2022-07-23T00:37:01;15.15;;;9.50;;
22737;SDS011;11536;50.860;4.286;2022-07-23T00:39:27;18.55;;;10.52;;
22737;SDS011;11536;50.860;4.286;2022-07-23T00:41:52;17.63;;;10.30;;
22737;SDS011;11536;50.860;4.286;2022-07-23T00:46:52;13.88;;;8.43;;
22737;SDS011;11536;50.860;4.286;2022-07-23T00:49:20;17.23;;;9.32;;
22737;SDS011;11536;50.860;4.286;2022-07-23T00:51:47;15.60;;;8.57;;
22737;SDS011;11536;50.860;4.286;2022-07-23T00:54:14;15.82;;;8.25;;
22737;SDS011;11536;50.860;4.286;2022-07-23T00:56:41;15.25;;;9.23;;
22737;SDS011;11536;50.860;4.286;2022-07-23T00:59:08;14.63;;;9.20;;
22737;SDS011;11536;50.860;4.286;2022-07-23T01:01:34;15.60;;;9.57;;
22737;SDS011;11536;50.860;4.286;2022-07-23T01:04:00;15.25;;;9.75;;
22737;SDS011;11536;50.860;4.286;2022-07-23T01:06:25;17.15;;;8.07;;
22737;SDS011;11536;50.860;4.286;2022-07-23T01:08:52;15.48;;;8.57;;
22737;SDS011;11536;50.860;4.286;2022-07-23T01:11:19;16.88;;;8.90;;
22737;SDS011;11536;50.860;4.286;2022-07-23T01:13:45;15.20;;;8.75;;
22737;SDS011;11536;50.860;4.286;2022-07-23T01:16:12;14.43;;;9.18;;
22737;SDS011;11536;50.860;4.286;2022-07-23T01:18:38;17.35;;;10.15;;
22737;SDS011;11536;50.860;4.286;2022-07-23T01:21:03;15.27;;;9.77;;
22737;SDS011;11536;50.860;4.286;2022-07-23T01:23:29;14.32;;;9.05;;
22737;SDS011;11536;50.860;4.286;2022-07-23T01:25:55;15.35;;;9.57;;
22737;SDS011;11536;50.860;4.286;2022-07-23T01:28:20;15.48;;;9.10;;
22737;SDS011;11536;50.860;4.286;2022-07-23T01:30:47;15.20;;;8.25;;
22737;SDS011;11536;50.860;4.286;2022-07-23T01:33:13;15.88;;;9.30;;
22737;SDS011;11536;50.860;4.286;2022-07-23T01:35:39;16.13;;;9.57;;
22737;SDS011;11536;50.860;4.286;2022-07-23T01:38:04;13.48;;;8.85;;
22737;SDS011;11536;50.860;4.286;2022-07-23T01:40:30;16.02;;;9.75;;
22737;SDS011;11536;50.860;4.286;2022-07-23T01:42:56;14.75;;;9.05;;
22737;SDS011;11536;50.860;4.286;2022-07-23T01:45:22;14.30;;;9.07;;
22737;SDS011;11536;50.860;4.286;2022-07-23T01:47:48;16.40;;;9.15;;
22737;SDS011;11536;50.860;4.286;2022-07-23T01:50:14;15.32;;;8.52;;
22737;SDS011;11536;50.860;4.286;2022-07-23T01:52:39;15.60;;;9.35;;
22737;SDS011;11536;50.860;4.286;2022-07-23T01:55:05;14.23;;;8.93;;
22737;SDS011;11536;50.860;4.286;2022-07-23T01:57:33;18.08;;;8.45;;
22737;SDS011;11536;50.860;4.286;2022-07-23T01:59:58;18.00;;;9.65;;
22737;SDS011;11536;50.860;4.286;2022-07-23T02:02:24;13.48;;;8.98;;
22737;SDS011;11536;50.860;4.286;2022-07-23T02:04:50;14.50;;;9.27;;
22737;SDS011;11536;50.860;4.286;2022-07-23T02:07:15;11.75;;;8.18;;
22737;SDS011;11536;50.860;4.286;2022-07-23T02:09:41;12.60;;;7.65;;
22737;SDS011;11536;50.860;4.286;2022-07-23T02:12:07;12.45;;;8.27;;
22737;SDS011;11536;50.860;4.286;2022-07-23T02:14:32;15.95;;;9.45;;
22737;SDS011;11536;50.860;4.286;2022-07-23T02:16:58;14.00;;;8.32;;
22737;SDS011;11536;50.860;4.286;2022-07-23T02:19:24;15.68;;;8.82;;
22737;SDS011;11536;50.860;4.286;2022-07-23T02:21:50;14.32;;;8.50;;
22737;SDS011;11536;50.860;4.286;2022-07-23T02:24:15;12.85;;;7.93;;
22737;SDS011;11536;50.860;4.286;2022-07-23T02:26:41;15.13;;;8.75;;
22737;SDS011;11536;50.860;4.286;2022-07-23T02:29:07;15.40;;;8.50;;
22737;SDS011;11536;50.860;4.286;2022-07-23T02:31:33;12.93;;;7.90;;
22737;SDS011;11536;50.860;4.286;2022-07-23T02:33:59;15.18;;;7.63;;
22737;SDS011;11536;50.860;4.286;2022-07-23T02:36:25;13.27;;;8.88;;
22737;SDS011;11536;50.860;4.286;2022-07-23T02:38:51;12.38;;;7.63;;
22737;SDS011;11536;50.860;4.286;2022-07-23T02:41:16;14.27;;;8.27;;
22737;SDS011;11536;50.860;4.286;2022-07-23T02:43:42;15.77;;;9.15;;
22737;SDS011;11536;50.860;4.286;2022-07-23T02:46:08;16.05;;;9.43;;
22737;SDS011;11536;50.860;4.286;2022-07-23T02:48:33;15.40;;;8.98;;
22737;SDS011;11536;50.860;4.286;2022-07-23T02:50:59;16.58;;;10.18;;
22737;SDS011;11536;50.860;4.286;2022-07-23T02:53:24;16.08;;;9.50;;
22737;SDS011;11536;50.860;4.286;2022-07-23T02:55:50;17.75;;;9.77;;
22737;SDS011;11536;50.860;4.286;2022-07-23T02:58:16;14.73;;;9.43;;
22737;SDS011;11536;50.860;4.286;2022-07-23T03:00:42;13.18;;;8.15;;
22737;SDS011;11536;50.860;4.286;2022-07-23T03:03:08;13.75;;;8.70;;
22737;SDS011;11536;50.860;4.286;2022-07-23T03:05:34;14.13;;;8.32;;
22737;SDS011;11536;50.860;4.286;2022-07-23T03:08:00;14.82;;;9.07;;
22737;SDS011;11536;50.860;4.286;2022-07-23T03:10:26;16.35;;;9.50;;
22737;SDS011;11536;50.860;4.286;2022-07-23T03:12:51;15.65;;;10.00;;
22737;SDS011;11536;50.860;4.286;2022-07-23T03:15:17;13.77;;;9.55;;
22737;SDS011;11536;50.860;4.286;2022-07-23T03:17:43;14.57;;;8.38;;
22737;SDS011;11536;50.860;4.286;2022-07-23T03:20:08;16.15;;;9.07;;
22737;SDS011;11536;50.860;4.286;2022-07-23T03:22:34;13.55;;;9.02;;
22737;SDS011;11536;50.860;4.286;2022-07-23T03:25:00;14.98;;;8.98;;
22737;SDS011;11536;50.860;4.286;2022-07-23T03:27:26;15.55;;;9.60;;
22737;SDS011;11536;50.860;4.286;2022-07-23T03:29:53;15.40;;;9.52;;
22737;SDS011;11536;50.860;4.286;2022-07-23T03:32:21;12.90;;;8.38;;
22737;SDS011;11536;50.860;4.286;2022-07-23T03:34:47;14.02;;;8.57;;
22737;SDS011;11536;50.860;4.286;2022-07-23T03:37:13;14.18;;;8.52;;
22737;SDS011;11536;50.860;4.286;2022-07-23T03:39:38;14.75;;;8.70;;
22737;SDS011;11536;50.860;4.286;2022-07-23T03:42:05;14.95;;;9.60;;
22737;SDS011;11536;50.860;4.286;2022-07-23T03:44:30;18.63;;;10.20;;
22737;SDS011;11536;50.860;4.286;2022-07-23T03:46:56;15.10;;;9.98;;
22737;SDS011;11536;50.860;4.286;2022-07-23T03:49:22;17.63;;;9.65;;
22737;SDS011;11536;50.860;4.286;2022-07-23T03:51:47;14.82;;;9.18;;
22737;SDS011;11536;50.860;4.286;2022-07-23T03:54:13;13.90;;;8.95;;
22737;SDS011;11536;50.860;4.286;2022-07-23T03:56:39;14.63;;;9.57;;
22737;SDS011;11536;50.860;4.286;2022-07-23T03:59:04;14.27;;;9.00;;
22737;SDS011;11536;50.860;4.286;2022-07-23T04:01:30;18.52;;;9.98;;
22737;SDS011;11536;50.860;4.286;2022-07-23T04:03:56;15.05;;;9.50;;
22737;SDS011;11536;50.860;4.286;2022-07-23T04:06:21;14.95;;;9.05;;
22737;SDS011;11536;50.860;4.286;2022-07-23T04:08:47;15.63;;;9.38;;
22737;SDS011;11536;50.860;4.286;2022-07-23T04:11:13;15.05;;;9.13;;
22737;SDS011;11536;50.860;4.286;2022-07-23T04:13:38;13.13;;;9.10;;
22737;SDS011;11536;50.860;4.286;2022-07-23T04:16:04;18.17;;;9.82;;
22737;SDS011;11536;50.860;4.286;2022-07-23T04:18:31;15.63;;;9.27;;
22737;SDS011;11536;50.860;4.286;2022-07-23T04:20:57;14.55;;;8.63;;
22737;SDS011;11536;50.860;4.286;2022-07-23T04:23:22;15.23;;;9.40;;
22737;SDS011;11536;50.860;4.286;2022-07-23T04:25:48;15.10;;;9.18;;
22737;SDS011;11536;50.860;4.286;2022-07-23T04:28:14;14.23;;;9.07;;
22737;SDS011;11536;50.860;4.286;2022-07-23T04:30:39;15.18;;;10.18;;
22737;SDS011;11536;50.860;4.286;2022-07-23T04:33:05;18.38;;;10.00;;
22737;SDS011;11536;50.860;4.286;2022-07-23T04:35:32;15.05;;;9.27;;
22737;SDS011;11536;50.860;4.286;2022-07-23T04:38:01;16.23;;;9.13;;
22737;SDS011;11536;50.860;4.286;2022-07-23T04:40:27;16.40;;;9.80;;
22737;SDS011;11536;50.860;4.286;2022-07-23T04:42:53;15.05;;;9.13;;
22737;SDS011;11536;50.860;4.286;2022-07-23T04:45:19;15.48;;;9.02;;
22737;SDS011;11536;50.860;4.286;2022-07-23T04:47:45;14.63;;;8.65;;
22737;SDS011;11536;50.860;4.286;2022-07-23T04:50:10;13.07;;;8.38;;
22737;SDS011;11536;50.860;4.286;2022-07-23T04:52:36;16.55;;;9.23;;
22737;SDS011;11536;50.860;4.286;2022-07-23T04:55:02;15.10;;;8.95;;
22737;SDS011;11536;50.860;4.286;2022-07-23T04:57:29;13.85;;;9.10;;
22737;SDS011;11536;50.860;4.286;2022-07-23T04:59:54;15.60;;;10.23;;
22737;SDS011;11536;50.860;4.286;2022-07-23T05:02:20;15.82;;;8.77;;
22737;SDS011;11536;50.860;4.286;2022-07-23T05:04:45;15.77;;;9.48;;
22737;SDS011;11536;50.860;4.286;2022-07-23T05:07:11;15.63;;;7.57;;
22737;SDS011;11536;50.860;4.286;2022-07-23T05:09:37;16.95;;;9.43;;
22737;SDS011;11536;50.860;4.286;2022-07-23T05:12:03;14.40;;;9.77;;
22737;SDS011;11536;50.860;4.286;2022-07-23T05:14:29;18.48;;;9.43;;
22737;SDS011;11536;50.860;4.286;2022-07-23T05:16:54;15.80;;;9.00;;
22737;SDS011;11536;50.860;4.286;2022-07-23T05:19:20;13.00;;;8.43;;
22737;SDS011;11536;50.860;4.286;2022-07-23T05:21:46;17.38;;;9.77;;
22737;SDS011;11536;50.860;4.286;2022-07-23T05:24:11;16.02;;;9.68;;
22737;SDS011;11536;50.860;4.286;2022-07-23T05:26:37;15.27;;;9.93;;
22737;SDS011;11536;50.860;4.286;2022-07-23T05:29:02;17.00;;;9.90;;
22737;SDS011;11536;50.860;4.286;2022-07-23T05:31:28;17.38;;;10.40;;
22737;SDS011;11536;50.860;4.286;2022-07-23T05:33:54;18.92;;;11.18;;
22737;SDS011;11536;50.860;4.286;2022-07-23T05:36:19;16.95;;;10.73;;
22737;SDS011;11536;50.860;4.286;2022-07-23T05:38:45;15.02;;;10.05;;
22737;SDS011;11536;50.860;4.286;2022-07-23T05:41:10;21.02;;;12.38;;
22737;SDS011;11536;50.860;4.286;2022-07-23T05:43:36;18.67;;;11.10;;
22737;SDS011;11536;50.860;4.286;2022-07-23T05:46:02;17.38;;;11.63;;
22737;SDS011;11536;50.860;4.286;2022-07-23T05:48:27;18.83;;;9.93;;
22737;SDS011;11536;50.860;4.286;2022-07-23T05:50:53;16.30;;;9.85;;
22737;SDS011;11536;50.860;4.286;2022-07-23T05:53:19;17.73;;;10.05;;
22737;SDS011;11536;50.860;4.286;2022-07-23T05:55:44;15.38;;;9.57;;
22737;SDS011;11536;50.860;4.286;2022-07-23T05:58:10;15.00;;;10.20;;
22737;SDS011;11536;50.860;4.286;2022-07-23T06:00:35;16.85;;;10.20;;
22737;SDS011;11536;50.860;4.286;2022-07-23T06:03:01;16.33;;;10.35;;
22737;SDS011;11536;50.860;4.286;2022-07-23T06:05:27;16.05;;;10.45;;
22737;SDS011;11536;50.860;4.286;2022-07-23T06:07:52;16.70;;;10.05;;
22737;SDS011;11536;50.860;4.286;2022-07-23T06:10:19;19.95;;;10.30;;
22737;SDS011;11536;50.860;4.286;2022-07-23T06:12:45;16.30;;;10.15;;
22737;SDS011;11536;50.860;4.286;2022-07-23T06:15:10;17.77;;;10.70;;
22737;SDS011;11536;50.860;4.286;2022-07-23T06:17:36;15.98;;;8.82;;
22737;SDS011;11536;50.860;4.286;2022-07-23T06:20:04;17.35;;;9.60;;
22737;SDS011;11536;50.860;4.286;2022-07-23T06:22:31;14.20;;;9.38;;
22737;SDS011;11536;50.860;4.286;2022-07-23T06:24:57;15.77;;;9.13;;
22737;SDS011;11536;50.860;4.286;2022-07-23T06:27:22;13.20;;;8.50;;
22737;SDS011;11536;50.860;4.286;2022-07-23T06:29:48;14.50;;;8.80;;
22737;SDS011;11536;50.860;4.286;2022-07-23T06:32:13;15.93;;;9.80;;
22737;SDS011;11536;50.860;4.286;2022-07-23T06:34:39;15.90;;;10.05;;
22737;SDS011;11536;50.860;4.286;2022-07-23T06:37:05;16.15;;;9.25;;
22737;SDS011;11536;50.860;4.286;2022-07-23T06:39:30;16.70;;;10.38;;
22737;SDS011;11536;50.860;4.286;2022-07-23T06:41:56;14.02;;;9.77;;
22737;SDS011;11536;50.860;4.286;2022-07-23T06:44:22;13.95;;;8.55;;
22737;SDS011;11536;50.860;4.286;2022-07-23T06:46:47;15.55;;;9.60;;
22737;SDS011;11536;50.860;4.286;2022-07-23T06:49:13;16.77;;;10.50;;
22737;SDS011;11536;50.860;4.286;2022-07-23T06:51:38;17.45;;;10.02;;
22737;SDS011;11536;50.860;4.286;2022-07-23T06:54:04;17.65;;;8.93;;
22737;SDS011;11536;50.860;4.286;2022-07-23T06:56:30;19.40;;;11.80;;
22737;SDS011;11536;50.860;4.286;2022-07-23T06:58:55;17.42;;;11.27;;
22737;SDS011;11536;50.860;4.286;2022-07-23T07:01:21;16.55;;;11.02;;
22737;SDS011;11536;50.860;4.286;2022-07-23T07:03:47;18.63;;;11.57;;
22737;SDS011;11536;50.860;4.286;2022-07-23T07:06:13;15.95;;;10.95;;
22737;SDS011;11536;50.860;4.286;2022-07-23T07:08:39;17.98;;;9.48;;
22737;SDS011;11536;50.860;4.286;2022-07-23T07:11:04;15.25;;;8.77;;
22737;SDS011;11536;50.860;4.286;2022-07-23T07:13:30;18.65;;;10.18;;
22737;SDS011;11536;50.860;4.286;2022-07-23T07:15:56;17.63;;;9.82;;
22737;SDS011;11536;50.860;4.286;2022-07-23T07:18:21;14.75;;;9.18;;
22737;SDS011;11536;50.860;4.286;2022-07-23T07:20:47;15.50;;;9.18;;
22737;SDS011;11536;50.860;4.286;2022-07-23T07:23:14;13.65;;;8.85;;
22737;SDS011;11536;50.860;4.286;2022-07-23T07:25:40;17.52;;;10.40;;
22737;SDS011;11536;50.860;4.286;2022-07-23T07:28:05;15.30;;;9.88;;
22737;SDS011;11536;50.860;4.286;2022-07-23T07:30:31;17.67;;;9.73;;
22737;SDS011;11536;50.860;4.286;2022-07-23T07:32:57;15.23;;;9.52;;
22737;SDS011;11536;50.860;4.286;2022-07-23T07:35:23;18.42;;;9.90;;
22737;SDS011;11536;50.860;4.286;2022-07-23T07:37:49;15.18;;;8.63;;
22737;SDS011;11536;50.860;4.286;2022-07-23T07:40:14;14.45;;;8.80;;
22737;SDS011;11536;50.860;4.286;2022-07-23T07:42:44;16.40;;;9.25;;
22737;SDS011;11536;50.860;4.286;2022-07-23T07:45:13;13.57;;;8.75;;
22737;SDS011;11536;50.860;4.286;2022-07-23T07:47:40;15.23;;;9.07;;
22737;SDS011;11536;50.860;4.286;2022-07-23T07:50:05;14.98;;;8.80;;
22737;SDS011;11536;50.860;4.286;2022-07-23T07:52:32;15.00;;;8.27;;
22737;SDS011;11536;50.860;4.286;2022-07-23T07:55:01;15.73;;;9.18;;
22737;SDS011;11536;50.860;4.286;2022-07-23T07:57:28;15.93;;;8.80;;
22737;SDS011;11536;50.860;4.286;2022-07-23T07:59:53;14.63;;;8.20;;
22737;SDS011;11536;50.860;4.286;2022-07-23T08:02:19;14.80;;;7.35;;
22737;SDS011;11536;50.860;4.286;2022-07-23T08:04:44;11.52;;;6.97;;
22737;SDS011;11536;50.860;4.286;2022-07-23T08:07:10;14.68;;;6.53;;
22737;SDS011;11536;50.860;4.286;2022-07-23T08:09:35;11.35;;;6.10;;
22737;SDS011;11536;50.860;4.286;2022-07-23T08:12:01;16.35;;;7.70;;
22737;SDS011;11536;50.860;4.286;2022-07-23T08:14:27;12.90;;;6.90;;
22737;SDS011;11536;50.860;4.286;2022-07-23T08:16:52;11.73;;;6.55;;
22737;SDS011;11536;50.860;4.286;2022-07-23T08:19:18;12.90;;;7.25;;
22737;SDS011;11536;50.860;4.286;2022-07-23T08:21:43;12.68;;;7.53;;
22737;SDS011;11536;50.860;4.286;2022-07-23T08:24:09;17.05;;;8.15;;
22737;SDS011;11536;50.860;4.286;2022-07-23T08:26:34;11.95;;;7.80;;
22737;SDS011;11536;50.860;4.286;2022-07-23T08:29:00;13.35;;;7.18;;
22737;SDS011;11536;50.860;4.286;2022-07-23T08:31:26;14.52;;;8.23;;
22737;SDS011;11536;50.860;4.286;2022-07-23T08:33:51;11.38;;;7.22;;
22737;SDS011;11536;50.860;4.286;2022-07-23T08:36:17;13.73;;;7.88;;
22737;SDS011;11536;50.860;4.286;2022-07-23T08:38:43;13.00;;;7.05;;
22737;SDS011;11536;50.860;4.286;2022-07-23T08:41:08;13.00;;;7.80;;
22737;SDS011;11536;50.860;4.286;2022-07-23T08:43:34;14.93;;;7.82;;
22737;SDS011;11536;50.860;4.286;2022-07-23T08:46:01;12.93;;;7.15;;
22737;SDS011;11536;50.860;4.286;2022-07-23T08:48:28;16.27;;;7.85;;
22737;SDS011;11536;50.860;4.286;2022-07-23T08:50:56;11.18;;;6.93;;
22737;SDS011;11536;50.860;4.286;2022-07-23T08:53:24;15.70;;;7.57;;
22737;SDS011;11536;50.860;4.286;2022-07-23T08:55:52;11.48;;;6.47;;
22737;SDS011;11536;50.860;4.286;2022-07-23T08:58:20;10.40;;;6.43;;
22737;SDS011;11536;50.860;4.286;2022-07-23T09:00:46;14.68;;;6.15;;
22737;SDS011;11536;50.860;4.286;2022-07-23T09:03:20;11.70;;;6.95;;
22737;SDS011;11536;50.860;4.286;2022-07-23T09:05:49;10.95;;;6.47;;
22737;SDS011;11536;50.860;4.286;2022-07-23T09:08:17;17.98;;;6.90;;
22737;SDS011;11536;50.860;4.286;2022-07-23T09:11:04;13.90;;;6.97;;
22737;SDS011;11536;50.860;4.286;2022-07-23T09:13:41;13.13;;;6.72;;
22737;SDS011;11536;50.860;4.286;2022-07-23T09:16:14;11.77;;;7.10;;
22737;SDS011;11536;50.860;4.286;2022-07-23T09:18:48;13.18;;;6.60;;
22737;SDS011;11536;50.860;4.286;2022-07-23T09:21:17;11.52;;;6.85;;
22737;SDS011;11536;50.860;4.286;2022-07-23T09:23:44;11.73;;;7.05;;
22737;SDS011;11536;50.860;4.286;2022-07-23T09:26:23;12.27;;;6.60;;
22737;SDS011;11536;50.860;4.286;2022-07-23T09:31:45;12.70;;;6.22;;
22737;SDS011;11536;50.860;4.286;2022-07-23T09:34:16;12.55;;;6.55;;
22737;SDS011;11536;50.860;4.286;2022-07-23T09:36:45;11.10;;;6.35;;
22737;SDS011;11536;50.860;4.286;2022-07-23T09:39:12;12.20;;;6.57;;
22737;SDS011;11536;50.860;4.286;2022-07-23T09:41:40;10.63;;;5.53;;
22737;SDS011;11536;50.860;4.286;2022-07-23T09:44:20;9.68;;;5.28;;
22737;SDS011;11536;50.860;4.286;2022-07-23T09:46:46;8.60;;;5.35;;
22737;SDS011;11536;50.860;4.286;2022-07-23T09:49:20;9.40;;;5.80;;
22737;SDS011;11536;50.860;4.286;2022-07-23T09:51:51;9.68;;;6.10;;
22737;SDS011;11536;50.860;4.286;2022-07-23T09:54:24;9.02;;;5.80;;
22737;SDS011;11536;50.860;4.286;2022-07-23T09:56:53;8.95;;;4.75;;
22737;SDS011;11536;50.860;4.286;2022-07-23T09:59:22;9.02;;;5.03;;
22737;SDS011;11536;50.860;4.286;2022-07-23T10:01:50;10.45;;;5.93;;
22737;SDS011;11536;50.860;4.286;2022-07-23T10:04:18;8.52;;;5.60;;
22737;SDS011;11536;50.860;4.286;2022-07-23T10:06:45;10.23;;;5.68;;
22737;SDS011;11536;50.860;4.286;2022-07-23T10:09:11;10.70;;;5.30;;
22737;SDS011;11536;50.860;4.286;2022-07-23T10:11:41;8.43;;;4.50;;
22737;SDS011;11536;50.860;4.286;2022-07-23T10:14:07;9.52;;;5.03;;
22737;SDS011;11536;50.860;4.286;2022-07-23T10:16:33;10.98;;;5.90;;
22737;SDS011;11536;50.860;4.286;2022-07-23T10:18:59;10.90;;;5.80;;
22737;SDS011;11536;50.860;4.286;2022-07-23T10:21:33;8.32;;;4.60;;
22737;SDS011;11536;50.860;4.286;2022-07-23T10:30:19;9.73;;;4.20;;
22737;SDS011;11536;50.860;4.286;2022-07-23T10:36:19;8.70;;;4.55;;
22737;SDS011;11536;50.860;4.286;2022-07-23T10:38:53;10.02;;;4.57;;
22737;SDS011;11536;50.860;4.286;2022-07-23T10:41:57;10.50;;;5.05;;
22737;SDS011;11536;50.860;4.286;2022-07-23T10:44:20;7.60;;;4.30;;
22737;SDS011;11536;50.860;4.286;2022-07-23T10:49:30;10.80;;;5.05;;
22737;SDS011;11536;50.860;4.286;2022-07-23T10:57:20;11.55;;;5.72;;
22737;SDS011;11536;50.860;4.286;2022-07-23T11:02:27;8.50;;;4.55;;
22737;SDS011;11536;50.860;4.286;2022-07-23T11:05:04;8.73;;;4.40;;
22737;SDS011;11536;50.860;4.286;2022-07-23T11:07:30;7.00;;;4.43;;
22737;SDS011;11536;50.860;4.286;2022-07-23T11:09:56;8.82;;;5.47;;
22737;SDS011;11536;50.860;4.286;2022-07-23T11:17:37;13.70;;;5.85;;
22737;SDS011;11536;50.860;4.286;2022-07-23T11:25:30;8.30;;;4.20;;
22737;SDS011;11536;50.860;4.286;2022-07-23T11:28:12;8.48;;;4.72;;
22737;SDS011;11536;50.860;4.286;2022-07-23T11:30:43;10.68;;;6.50;;
22737;SDS011;11536;50.860;4.286;2022-07-23T11:35:39;10.25;;;5.10;;
22737;SDS011;11536;50.860;4.286;2022-07-23T11:40:52;8.25;;;4.03;;
22737;SDS011;11536;50.860;4.286;2022-07-23T11:43:19;7.93;;;3.80;;
22737;SDS011;11536;50.860;4.286;2022-07-23T11:45:46;8.63;;;4.25;;
22737;SDS011;11536;50.860;4.286;2022-07-23T11:48:18;8.40;;;4.45;;
22737;SDS011;11536;50.860;4.286;2022-07-23T11:50:47;7.50;;;4.18;;
22737;SDS011;11536;50.860;4.286;2022-07-23T11:53:20;10.30;;;5.30;;
22737;SDS011;11536;50.860;4.286;2022-07-23T11:55:50;7.45;;;4.20;;
22737;SDS011;11536;50.860;4.286;2022-07-23T11:58:16;9.00;;;5.00;;
22737;SDS011;11536;50.860;4.286;2022-07-23T12:00:41;10.45;;;4.82;;
22737;SDS011;11536;50.860;4.286;2022-07-23T12:03:07;10.88;;;5.68;;
22737;SDS011;11536;50.860;4.286;2022-07-23T12:05:33;10.50;;;4.63;;
22737;SDS011;11536;50.860;4.286;2022-07-23T12:08:01;9.32;;;4.88;;
22737;SDS011;11536;50.860;4.286;2022-07-23T12:10:30;11.05;;;4.68;;
22737;SDS011;11536;50.860;4.286;2022-07-23T12:15:38;6.72;;;3.58;;
22737;SDS011;11536;50.860;4.286;2022-07-23T12:18:07;6.05;;;3.15;;
22737;SDS011;11536;50.860;4.286;2022-07-23T12:20:37;7.28;;;3.53;;
22737;SDS011;11536;50.860;4.286;2022-07-23T12:23:12;5.18;;;2.50;;
22737;SDS011;11536;50.860;4.286;2022-07-23T12:25:39;7.75;;;4.00;;
22737;SDS011;11536;50.860;4.286;2022-07-23T12:30:39;7.25;;;3.50;;
22737;SDS011;11536;50.860;4.286;2022-07-23T12:33:08;6.55;;;3.35;;
22737;SDS011;11536;50.860;4.286;2022-07-23T12:38:10;6.22;;;3.30;;
22737;SDS011;11536;50.860;4.286;2022-07-23T12:40:42;6.72;;;3.30;;
22737;SDS011;11536;50.860;4.286;2022-07-23T12:43:09;7.30;;;3.20;;
22737;SDS011;11536;50.860;4.286;2022-07-23T12:48:20;7.88;;;3.63;;
22737;SDS011;11536;50.860;4.286;2022-07-23T12:50:59;8.18;;;4.43;;
22737;SDS011;11536;50.860;4.286;2022-07-23T12:53:26;6.80;;;3.20;;
22737;SDS011;11536;50.860;4.286;2022-07-23T12:55:59;8.27;;;3.50;;
22737;SDS011;11536;50.860;4.286;2022-07-23T12:58:25;6.38;;;3.47;;
22737;SDS011;11536;50.860;4.286;2022-07-23T13:05:50;7.57;;;3.70;;
22737;SDS011;11536;50.860;4.286;2022-07-23T13:08:16;7.25;;;3.97;;
22737;SDS011;11536;50.860;4.286;2022-07-23T13:10:43;6.95;;;4.05;;
22737;SDS011;11536;50.860;4.286;2022-07-23T13:13:11;5.70;;;3.20;;
22737;SDS011;11536;50.860;4.286;2022-07-23T13:15:37;8.88;;;3.75;;
22737;SDS011;11536;50.860;4.286;2022-07-23T13:18:03;7.95;;;3.47;;
22737;SDS011;11536;50.860;4.286;2022-07-23T13:20:29;6.75;;;3.85;;
22737;SDS011;11536;50.860;4.286;2022-07-23T13:22:57;8.35;;;3.60;;
22737;SDS011;11536;50.860;4.286;2022-07-23T13:25:22;9.20;;;3.20;;
22737;SDS011;11536;50.860;4.286;2022-07-23T13:27:48;6.85;;;3.53;;
22737;SDS011;11536;50.860;4.286;2022-07-23T13:30:14;7.20;;;3.50;;
22737;SDS011;11536;50.860;4.286;2022-07-23T13:32:40;7.53;;;3.95;;
22737;SDS011;11536;50.860;4.286;2022-07-23T13:35:06;6.25;;;3.15;;
22737;SDS011;11536;50.860;4.286;2022-07-23T13:37:32;5.53;;;3.00;;
22737;SDS011;11536;50.860;4.286;2022-07-23T13:39:57;8.00;;;3.10;;
22737;SDS011;11536;50.860;4.286;2022-07-23T13:42:23;6.38;;;3.83;;
22737;SDS011;11536;50.860;4.286;2022-07-23T13:44:52;7.57;;;3.65;;
22737;SDS011;11536;50.860;4.286;2022-07-23T13:47:17;8.23;;;3.65;;
22737;SDS011;11536;50.860;4.286;2022-07-23T13:49:43;8.80;;;3.25;;
22737;SDS011;11536;50.860;4.286;2022-07-23T13:52:09;5.82;;;3.40;;
22737;SDS011;11536;50.860;4.286;2022-07-23T13:54:35;6.65;;;3.00;;
22737;SDS011;11536;50.860;4.286;2022-07-23T13:57:01;5.93;;;3.30;;
22737;SDS011;11536;50.860;4.286;2022-07-23T13:59:26;6.47;;;3.03;;
22737;SDS011;11536;50.860;4.286;2022-07-23T14:01:52;5.85;;;3.35;;
22737;SDS011;11536;50.860;4.286;2022-07-23T14:04:19;6.07;;;3.13;;
22737;SDS011;11536;50.860;4.286;2022-07-23T14:06:45;6.82;;;3.08;;
22737;SDS011;11536;50.860;4.286;2022-07-23T14:09:11;5.72;;;3.30;;
22737;SDS011;11536;50.860;4.286;2022-07-23T14:11:36;7.50;;;3.35;;
22737;SDS011;11536;50.860;4.286;2022-07-23T14:14:03;5.53;;;2.90;;
22737;SDS011;11536;50.860;4.286;2022-07-23T14:16:29;6.57;;;3.47;;
22737;SDS011;11536;50.860;4.286;2022-07-23T14:18:55;6.50;;;3.28;;
22737;SDS011;11536;50.860;4.286;2022-07-23T14:21:21;5.05;;;2.70;;
22737;SDS011;11536;50.860;4.286;2022-07-23T14:23:46;5.35;;;2.95;;
22737;SDS011;11536;50.860;4.286;2022-07-23T14:26:12;7.05;;;2.75;;
22737;SDS011;11536;50.860;4.286;2022-07-23T14:28:38;6.20;;;2.97;;
22737;SDS011;11536;50.860;4.286;2022-07-23T14:31:04;6.13;;;3.05;;
22737;SDS011;11536;50.860;4.286;2022-07-23T14:33:29;7.25;;;3.35;;
22737;SDS011;11536;50.860;4.286;2022-07-23T14:35:55;6.93;;;3.50;;
22737;SDS011;11536;50.860;4.286;2022-07-23T14:38:20;6.13;;;3.00;;
22737;SDS011;11536;50.860;4.286;2022-07-23T14:40:46;6.18;;;2.92;;
22737;SDS011;11536;50.860;4.286;2022-07-23T14:43:12;6.53;;;3.25;;
22737;SDS011;11536;50.860;4.286;2022-07-23T14:45:37;5.55;;;3.10;;
22737;SDS011;11536;50.860;4.286;2022-07-23T14:48:03;6.55;;;3.05;;
22737;SDS011;11536;50.860;4.286;2022-07-23T14:50:29;5.75;;;3.25;;
22737;SDS011;11536;50.860;4.286;2022-07-23T14:52:54;7.35;;;3.90;;
22737;SDS011;11536;50.860;4.286;2022-07-23T14:55:20;7.20;;;3.80;;
22737;SDS011;11536;50.860;4.286;2022-07-23T14:57:46;6.10;;;3.47;;
22737;SDS011;11536;50.860;4.286;2022-07-23T15:00:13;7.70;;;3.60;;
22737;SDS011;11536;50.860;4.286;2022-07-23T15:02:38;7.10;;;3.85;;
22737;SDS011;11536;50.860;4.286;2022-07-23T15:05:05;6.80;;;3.63;;
22737;SDS011;11536;50.860;4.286;2022-07-23T15:07:33;6.15;;;3.80;;
22737;SDS011;11536;50.860;4.286;2022-07-23T15:09:59;6.10;;;3.38;;
22737;SDS011;11536;50.860;4.286;2022-07-23T15:12:25;7.18;;;3.85;;
22737;SDS011;11536;50.860;4.286;2022-07-23T15:14:51;5.65;;;3.70;;
22737;SDS011;11536;50.860;4.286;2022-07-23T15:17:17;7.05;;;3.95;;
22737;SDS011;11536;50.860;4.286;2022-07-23T15:19:42;8.73;;;4.00;;
22737;SDS011;11536;50.860;4.286;2022-07-23T15:22:08;6.25;;;3.80;;
22737;SDS011;11536;50.860;4.286;2022-07-23T15:24:34;8.40;;;3.70;;
22737;SDS011;11536;50.860;4.286;2022-07-23T15:26:59;6.97;;;3.67;;
22737;SDS011;11536;50.860;4.286;2022-07-23T15:29:25;5.63;;;3.55;;